Moreno, Brazil
Current Conditions -  °F | °C
As of 8:00 AM on Friday 28 Nov 2014 (Local Time) from SBRF Reporting Station
Rain Showers Rain Showers  
Wind Chill: 79°   Ceiling: 6000
Heat Index: 82°   Visibility: 6mi
Dew Point: 72°   Wind: 7mph
Humidity: 78%   Direction: 90°E
Pressure: 29.94"   Gusts: NA
Location:  8.12°S, 35.09°W
Report Text: SBRF 281100Z 09006KT 9999 VCSH SCT020 BKN060 26/22 Q1014
Loading
Personal Weather Stations






























Interactive Weather Map New forecast layout! Learn more

10-Day Weather Forecast

Advertisements
Track Severe Weather on mobile